createdAt,value
2023-03-26T00:07:56.985Z,10.52
2023-03-26T00:18:00.743Z,7.65
2023-03-26T00:28:06.266Z,8.68
2023-03-26T00:38:09.258Z,9.98
2023-03-26T00:48:13.768Z,8.40
2023-03-26T00:58:17.348Z,8.80
2023-03-26T01:08:29.267Z,10.60
2023-03-26T01:18:41.017Z,8.40
2023-03-26T01:28:46.956Z,8.68
2023-03-26T01:48:58.624Z,9.07
2023-03-26T01:59:14.521Z,6.97
2023-03-26T02:09:24.045Z,7.57
2023-03-26T02:19:27.028Z,7.00
2023-03-26T02:29:31.396Z,7.55
2023-03-26T02:49:46.729Z,5.97
2023-03-26T02:59:57.920Z,8.45
2023-03-26T03:10:26.384Z,8.20
2023-03-26T03:20:56.752Z,7.15
2023-03-26T03:31:01.325Z,6.70
2023-03-26T03:41:09.931Z,6.32
2023-03-26T03:51:18.315Z,6.85
2023-03-26T04:01:32.969Z,5.57
2023-03-26T04:11:45.056Z,6.40
2023-03-26T04:22:14.867Z,5.38
2023-03-26T04:32:38.351Z,5.57
2023-03-26T04:42:46.353Z,5.22
2023-03-26T04:53:00.181Z,6.32
2023-03-26T05:03:31.741Z,5.55
2023-03-26T05:13:42.898Z,5.55
2023-03-26T05:23:48.768Z,5.65
2023-03-26T05:34:00.481Z,5.35
2023-03-26T05:44:03.811Z,5.38
2023-03-26T05:54:08.992Z,5.75
2023-03-26T06:04:40.867Z,5.13
2023-03-26T06:15:03.978Z,5.17
2023-03-26T06:25:27.201Z,5.80
2023-03-26T06:35:45.581Z,6.25
2023-03-26T06:45:52.375Z,10.18
2023-03-26T06:56:15.427Z,8.65
2023-03-26T07:06:50.328Z,6.65
2023-03-26T07:17:13.569Z,6.13
2023-03-26T07:27:38.639Z,7.45
2023-03-26T07:37:53.979Z,6.50
2023-03-26T07:48:18.168Z,7.22
2023-03-26T07:58:55.844Z,7.15
2023-03-26T08:09:20.683Z,6.45
2023-03-26T08:20:05.865Z,7.25
2023-03-26T08:30:15.599Z,7.95
2023-03-26T08:40:39.957Z,6.80
2023-03-26T08:51:29.633Z,5.60
2023-03-26T09:02:01.416Z,11.75
2023-03-26T09:13:01.103Z,7.40
2023-03-26T09:23:52.675Z,5.53
2023-03-26T09:34:00.178Z,5.90
2023-03-26T09:44:40.637Z,8.75
2023-03-26T09:55:24.507Z,4.50
2023-03-26T10:05:51.239Z,3.80
2023-03-26T10:16:10.935Z,3.95
2023-03-26T10:26:33.359Z,3.70
2023-03-26T10:36:38.475Z,2.58
2023-03-26T10:47:00.036Z,2.88
2023-03-26T10:57:09.036Z,2.55
2023-03-26T11:07:24.947Z,2.17
2023-03-26T11:17:39.627Z,0.90
2023-03-26T11:27:59.265Z,1.40
2023-03-26T11:38:06.906Z,1.80
2023-03-26T11:48:17.149Z,1.95
2023-03-26T11:58:29.853Z,2.15
2023-03-26T12:08:39.458Z,2.33
2023-03-26T12:18:48.350Z,2.90
2023-03-26T12:39:17.140Z,3.45
2023-03-26T12:49:22.035Z,2.50
2023-03-26T12:59:35.210Z,4.07
2023-03-26T13:10:12.011Z,2.90
2023-03-26T13:20:21.586Z,3.17
2023-03-26T13:30:36.213Z,3.20
2023-03-26T13:40:51.831Z,3.67
2023-03-26T13:51:05.175Z,1.83
2023-03-26T14:01:11.060Z,4.55
2023-03-26T14:11:20.707Z,6.22
2023-03-26T14:21:37.255Z,8.10
2023-03-26T14:31:49.652Z,10.00
2023-03-26T14:41:58.406Z,8.98
2023-03-26T14:52:11.103Z,6.47
2023-03-26T15:03:03.837Z,5.55
2023-03-26T15:13:24.973Z,5.65
2023-03-26T15:24:21.879Z,6.30
2023-03-26T15:34:55.584Z,6.78
2023-03-26T15:45:15.381Z,6.88
2023-03-26T15:55:31.533Z,6.85
2023-03-26T16:05:46.667Z,5.40
2023-03-26T16:26:12.798Z,4.45
2023-03-26T16:36:34.381Z,4.10
2023-03-26T16:46:50.679Z,3.65
2023-03-26T16:57:01.727Z,2.47
2023-03-26T17:07:16.153Z,3.22
2023-03-26T17:17:36.847Z,5.60
2023-03-26T17:27:50.113Z,4.03
2023-03-26T17:37:55.419Z,4.55
2023-03-26T17:58:06.730Z,3.17
2023-03-26T18:08:29.942Z,3.85
2023-03-26T18:18:38.340Z,3.67
2023-03-26T18:28:43.898Z,2.80
2023-03-26T18:38:48.912Z,3.80
2023-03-26T18:48:55.173Z,3.17
2023-03-26T18:59:01.526Z,2.65
2023-03-26T19:09:16.278Z,3.95
2023-03-26T19:19:27.861Z,2.72
2023-03-26T19:29:33.643Z,2.55
2023-03-26T19:39:42.691Z,3.70
2023-03-26T19:49:53.065Z,2.53
2023-03-26T19:59:58.405Z,3.03
2023-03-26T20:10:01.908Z,2.13
2023-03-26T20:20:12.154Z,2.00
2023-03-26T20:30:22.298Z,2.35
2023-03-26T20:40:38.404Z,2.40
2023-03-26T20:50:50.382Z,2.13
2023-03-26T21:00:56.953Z,2.50
2023-03-26T21:11:02.056Z,2.70
2023-03-26T21:21:28.038Z,3.10
2023-03-26T21:31:36.709Z,3.17
2023-03-26T21:41:46.651Z,3.33
2023-03-26T21:51:50.317Z,2.95
2023-03-26T22:02:03.859Z,3.42
2023-03-26T22:12:07.413Z,3.00
2023-03-26T22:22:12.557Z,2.90
2023-03-26T22:32:15.658Z,2.65
2023-03-26T22:42:20.649Z,2.65
2023-03-26T23:02:27.887Z,2.72
2023-03-26T23:12:31.259Z,3.58
2023-03-26T23:22:35.608Z,3.65
2023-03-26T23:32:38.697Z,3.67
2023-03-26T23:42:43.067Z,2.88
2023-03-26T23:52:46.979Z,2.30
